Time;durP1;ratioP1;P1;durP2;ratioP2;P2;SDS_P1;SDS_P2;PMS_P1;PMS_P2;Temp;Humidity;BMP_temperature;BMP_pressure;BME280_temperature;BME280_humidity;BME280_pressure;Samples;Min_cycle;Max_cycle;Signal;HPM_P1;HPM_P2
2022/07/06 00:03:16;;;;;;;2.20;2.10;;;;;15.60;96731.00;;;;8364203;28;20251;-69
2022/07/06 00:07:20;;;;;;;11.30;2.80;;;;;15.60;96730.00;;;;8363676;28;20216;-68
2022/07/06 00:11:23;;;;;;;3.58;2.35;;;;;15.50;96730.00;;;;8365138;28;20259;-67
2022/07/06 00:15:28;;;;;;;2.55;2.35;;;;;15.50;96739.00;;;;8363798;28;20275;-68
2022/07/06 00:19:31;;;;;;;2.30;2.10;;;;;15.50;96742.00;;;;8363928;28;20291;-69
2022/07/06 00:23:34;;;;;;;4.05;2.47;;;;;15.50;96733.00;;;;8364020;28;20523;-68
2022/07/06 00:27:37;;;;;;;2.60;2.33;;;;;15.50;96743.00;;;;8364485;28;20310;-68
2022/07/06 00:31:42;;;;;;;2.72;2.58;;;;;15.40;96743.00;;;;8363789;28;20211;-68
2022/07/06 00:35:45;;;;;;;5.35;2.90;;;;;15.30;96731.00;;;;8364048;28;20282;-68
2022/07/06 00:39:48;;;;;;;2.40;2.20;;;;;15.10;96744.00;;;;8363058;28;20199;-67
2022/07/06 00:43:55;;;;;;;3.75;3.17;;;;;15.00;96744.00;;;;8364234;28;20234;-68
2022/07/06 00:48:00;;;;;;;2.65;2.45;;;;;15.00;96739.00;;;;8369750;28;20223;-69
2022/07/06 00:52:34;;;;;;;2.97;2.70;;;;;14.90;96744.00;;;;8369567;28;20227;-68
2022/07/06 00:56:37;;;;;;;4.13;2.60;;;;;14.90;96748.00;;;;8369376;28;20279;-68
2022/07/06 01:00:44;;;;;;;2.90;2.70;;;;;14.80;96735.00;;;;8370862;28;20597;-69
2022/07/06 01:04:49;;;;;;;2.63;2.42;;;;;14.80;96730.00;;;;8369226;28;20314;-67
2022/07/06 01:08:52;;;;;;;8.13;2.65;;;;;14.70;96729.00;;;;8368965;28;20227;-68
2022/07/06 01:12:58;;;;;;;2.75;2.53;;;;;14.70;96725.00;;;;8369632;28;20572;-68
2022/07/06 01:17:01;;;;;;;3.03;2.80;;;;;14.70;96723.00;;;;8369159;28;20286;-68
2022/07/06 01:21:11;;;;;;;2.72;2.53;;;;;14.60;96711.00;;;;8368807;28;20257;-67
2022/07/06 01:25:14;;;;;;;2.50;2.35;;;;;14.50;96717.00;;;;8369650;28;20659;-69
2022/07/06 01:29:18;;;;;;;4.60;2.72;;;;;14.50;96713.00;;;;8368456;28;20607;-69
2022/07/06 01:33:21;;;;;;;2.70;2.50;;;;;14.40;96715.00;;;;8368682;28;20283;-68
2022/07/06 01:37:26;;;;;;;4.10;2.58;;;;;14.40;96715.00;;;;8368564;28;20718;-68
2022/07/06 01:41:29;;;;;;;3.53;2.60;;;;;14.30;96706.00;;;;8368946;28;20590;-69
2022/07/06 01:46:06;;;;;;;2.80;2.60;;;;;14.40;96704.00;;;;8368004;28;20232;-68
2022/07/06 01:50:10;;;;;;;2.63;2.42;;;;;14.30;96708.00;;;;8368342;28;20227;-68
2022/07/06 01:54:14;;;;;;;2.97;2.75;;;;;14.30;96709.00;;;;8368202;28;20249;-67
2022/07/06 01:58:18;;;;;;;4.13;3.05;;;;;14.30;96701.00;;;;8367443;28;20203;-68
2022/07/06 02:02:21;;;;;;;2.72;2.63;;;;;14.20;96710.00;;;;8368016;28;20233;-68
2022/07/06 02:06:24;;;;;;;3.20;2.90;;;;;14.20;96710.00;;;;8367862;28;20278;-68
2022/07/06 02:10:29;;;;;;;8.90;3.05;;;;;14.10;96703.00;;;;8368260;28;20713;-68
2022/07/06 02:14:32;;;;;;;3.10;2.92;;;;;14.10;96707.00;;;;8366908;28;20206;-68
2022/07/06 02:19:09;;;;;;;3.20;3.00;;;;;14.10;96708.00;;;;8368008;28;20526;-68
2022/07/06 02:23:12;;;;;;;7.63;3.05;;;;;14.00;96711.00;;;;8367092;28;20198;-68
2022/07/06 02:27:17;;;;;;;6.30;3.15;;;;;14.00;96707.00;;;;8367408;28;20281;-68
2022/07/06 02:31:20;;;;;;;3.40;2.95;;;;;13.90;96710.00;;;;8366472;28;20283;-68
2022/07/06 02:35:26;;;;;;;6.72;3.08;;;;;13.90;96709.00;;;;8366927;28;20215;-67
2022/07/06 02:40:03;;;;;;;5.28;3.35;;;;;13.90;96709.00;;;;8366815;28;20223;-67
2022/07/06 02:44:08;;;;;;;4.13;2.92;;;;;13.90;96715.00;;;;8366236;28;20206;-66
2022/07/06 02:48:11;;;;;;;3.65;2.80;;;;;14.00;96720.00;;;;8366824;28;20224;-67
2022/07/06 02:52:14;;;;;;;3.35;3.05;;;;;14.10;96719.00;;;;8365973;28;20281;-67
2022/07/06 02:56:52;;;;;;;3.53;2.90;;;;;14.10;96735.00;;;;8366093;28;20290;-68
2022/07/06 03:05:10;;;;;;;4.70;3.10;;;;;14.10;96744.00;;;;8268040;28;20297;-68
2022/07/06 03:09:13;;;;;;;3.20;2.90;;;;;14.10;96735.00;;;;8274620;28;20317;-67
2022/07/06 03:13:17;;;;;;;4.88;2.67;;;;;14.10;96744.00;;;;8278511;28;20200;-67
2022/07/06 03:17:21;;;;;;;4.20;3.25;;;;;14.20;96743.00;;;;8255317;28;20234;-66
2022/07/06 03:21:26;;;;;;;3.67;3.38;;;;;14.10;96754.00;;;;8247594;28;20288;-67
2022/07/06 03:25:29;;;;;;;4.28;3.42;;;;;13.90;96754.00;;;;8247510;28;20214;-67
2022/07/06 03:29:32;;;;;;;4.35;3.40;;;;;13.90;96747.00;;;;8248660;28;20599;-67
2022/07/06 03:33:37;;;;;;;3.80;3.30;;;;;14.00;96750.00;;;;8250470;28;20960;-67
2022/07/06 03:37:41;;;;;;;3.60;2.85;;;;;14.10;96757.00;;;;8249849;28;20212;-67
2022/07/06 03:41:45;;;;;;;5.32;3.03;;;;;14.20;96763.00;;;;8252685;28;20461;-66
2022/07/06 03:45:48;;;;;;;3.22;2.90;;;;;14.40;96753.00;;;;8249534;28;20198;-67
2022/07/06 03:54:16;;;;;;;3.13;2.83;;;;;14.70;96759.00;;;;8252376;28;20206;-65
2022/07/06 03:58:19;;;;;;;3.22;2.95;;;;;14.80;96765.00;;;;8250315;28;20514;-68
2022/07/06 04:02:23;;;;;;;4.25;3.00;;;;;14.90;96769.00;;;;8247661;28;20235;-67
2022/07/06 04:06:26;;;;;;;5.10;3.50;;;;;15.00;96766.00;;;;8234162;28;20210;-67
2022/07/06 04:10:33;;;;;;;3.15;2.85;;;;;15.30;96777.00;;;;8244149;28;20233;-67
2022/07/06 04:14:36;;;;;;;3.25;3.05;;;;;15.60;96779.00;;;;8244400;28;20204;-67
2022/07/06 04:18:39;;;;;;;7.15;3.00;;;;;15.90;96778.00;;;;8245175;28;20215;-66
2022/07/06 04:22:42;;;;;;;4.40;3.10;;;;;16.20;96782.00;;;;8246538;28;20264;-67
2022/07/06 04:26:47;;;;;;;3.08;2.88;;;;;16.40;96780.00;;;;8259541;28;20206;-68
2022/07/06 04:30:50;;;;;;;6.82;3.13;;;;;16.60;96781.00;;;;8253728;28;20927;-68
2022/07/06 04:34:54;;;;;;;4.38;2.67;;;;;16.90;96795.00;;;;8254152;28;20644;-67
2022/07/06 04:38:57;;;;;;;3.20;2.45;;;;;17.40;96796.00;;;;8249096;28;20305;-68
2022/07/06 04:43:02;;;;;;;5.07;2.80;;;;;18.00;96790.00;;;;8255687;28;20210;-68
2022/07/06 04:47:05;;;;;;;4.00;2.20;;;;;18.70;96799.00;;;;8250213;28;21029;-67
2022/07/06 04:51:08;;;;;;;4.60;2.25;;;;;19.40;96806.00;;;;8242163;28;20230;-66
2022/07/06 04:55:14;;;;;;;2.75;2.30;;;;;19.70;96812.00;;;;8244816;28;20231;-67
2022/07/06 04:59:19;;;;;;;4.78;2.25;;;;;19.70;96816.00;;;;8250806;28;20397;-67
2022/07/06 05:03:22;;;;;;;5.38;2.50;;;;;19.70;96812.00;;;;8247713;28;20238;-67
2022/07/06 05:07:28;;;;;;;15.15;2.67;;;;;19.60;96821.00;;;;8243406;28;20278;-67
2022/07/06 05:11:31;;;;;;;4.90;2.33;;;;;19.40;96814.00;;;;8241512;28;20223;-67
2022/07/06 05:15:44;;;;;;;3.33;2.58;;;;;19.30;96820.00;;;;8242352;28;20207;-67
2022/07/06 05:19:55;;;;;;;14.15;3.08;;;;;19.40;96830.00;;;;8251462;28;20203;-67
2022/07/06 05:23:58;;;;;;;5.55;2.50;;;;;19.60;96837.00;;;;8240157;28;20333;-67
2022/07/06 05:28:01;;;;;;;2.13;2.03;;;;;19.90;96832.00;;;;8238494;28;20286;-67
2022/07/06 05:32:07;;;;;;;6.22;2.35;;;;;20.00;96832.00;;;;8248542;28;20555;-68
2022/07/06 05:36:10;;;;;;;2.40;2.20;;;;;19.90;96838.00;;;;8247220;28;20199;-67
2022/07/06 05:40:13;;;;;;;8.20;3.22;;;;;20.00;96842.00;;;;8249424;28;20200;-67
2022/07/06 05:44:17;;;;;;;3.42;2.67;;;;;20.60;96848.00;;;;8249201;28;20199;-68
2022/07/06 05:52:44;;;;;;;4.97;2.80;;;;;22.20;96850.00;;;;8248748;28;20640;-67
2022/07/06 05:56:47;;;;;;;5.93;2.20;;;;;23.10;96850.00;;;;8248229;28;20406;-67
2022/07/06 06:00:50;;;;;;;2.15;2.05;;;;;23.60;96841.00;;;;8245249;28;20205;-67
2022/07/06 06:04:55;;;;;;;2.58;2.00;;;;;23.50;96843.00;;;;8249040;28;20253;-67
2022/07/06 06:08:58;;;;;;;1.98;1.88;;;;;23.70;96842.00;;;;8247431;28;20234;-67
2022/07/06 06:13:02;;;;;;;2.00;1.90;;;;;23.90;96838.00;;;;8249747;28;21056;-66
2022/07/06 06:17:08;;;;;;;4.97;2.40;;;;;24.20;96845.00;;;;8245571;28;21327;-66
2022/07/06 06:21:13;;;;;;;3.83;2.10;;;;;24.20;96845.00;;;;8243699;28;20290;-67
2022/07/06 06:25:17;;;;;;;2.92;2.28;;;;;24.20;96844.00;;;;8244723;28;20195;-67
2022/07/06 06:29:20;;;;;;;4.07;2.10;;;;;24.40;96840.00;;;;8243379;28;20237;-67
2022/07/06 06:33:23;;;;;;;4.80;2.38;;;;;24.80;96841.00;;;;8250121;28;20199;-68
2022/07/06 06:37:28;;;;;;;2.13;1.90;;;;;25.10;96855.00;;;;8241217;28;20811;-68
2022/07/06 06:41:31;;;;;;;6.68;2.47;;;;;25.50;96854.00;;;;8240524;28;20203;-68
2022/07/06 06:45:34;;;;;;;5.15;2.45;;;;;25.50;96849.00;;;;8247092;28;20285;-67
2022/07/06 06:49:37;;;;;;;3.63;2.08;;;;;25.50;96855.00;;;;8244997;28;20234;-68
2022/07/06 06:53:42;;;;;;;3.88;1.90;;;;;25.80;96851.00;;;;8245850;28;20226;-68
2022/07/06 06:57:46;;;;;;;4.35;2.08;;;;;26.10;96855.00;;;;8248624;28;20230;-67
2022/07/06 07:01:49;;;;;;;4.47;2.25;;;;;26.20;96860.00;;;;8243771;28;20241;-67
2022/07/06 07:05:58;;;;;;;2.28;2.03;;;;;26.10;96858.00;;;;8242910;28;20203;-68
2022/07/06 07:10:04;;;;;;;3.20;2.28;;;;;26.00;96862.00;;;;8250424;28;20226;-68
2022/07/06 07:14:07;;;;;;;1.90;1.80;;;;;26.10;96866.00;;;;8241831;28;20202;-68
2022/07/06 07:18:10;;;;;;;1.92;1.77;;;;;26.20;96856.00;;;;8249707;28;20640;-68
2022/07/06 07:22:18;;;;;;;2.38;2.17;;;;;26.60;96864.00;;;;8240087;28;20195;-62
2022/07/06 07:26:23;;;;;;;3.22;2.10;;;;;26.70;96868.00;;;;8238253;28;20295;-66
2022/07/06 07:30:26;;;;;;;4.10;1.98;;;;;26.80;96872.00;;;;8240654;28;20696;-66
2022/07/06 07:34:29;;;;;;;2.53;2.13;;;;;26.60;96872.00;;;;8245006;28;20199;-66
2022/07/06 07:38:32;;;;;;;2.80;2.22;;;;;26.60;96874.00;;;;8242454;28;20206;-67
2022/07/06 07:42:40;;;;;;;2.55;2.00;;;;;26.90;96868.00;;;;8237084;28;20220;-67
2022/07/06 07:46:43;;;;;;;7.07;2.28;;;;;27.00;96874.00;;;;8238493;28;20613;-67
2022/07/06 07:50:47;;;;;;;4.78;2.30;;;;;27.50;96873.00;;;;8231030;28;20294;-67
2022/07/06 07:54:50;;;;;;;3.22;1.70;;;;;28.30;96870.00;;;;8243797;28;20203;-67
2022/07/06 07:59:15;;;;;;;2.20;1.83;;;;;28.50;96876.00;;;;8238755;28;20214;-67
2022/07/06 08:03:18;;;;;;;2.95;1.63;;;;;28.20;96876.00;;;;8244211;28;20242;-66
2022/07/06 08:07:21;;;;;;;3.05;1.92;;;;;27.80;96873.00;;;;8241341;28;20225;-68
2022/07/06 08:11:25;;;;;;;1.90;1.80;;;;;28.30;96878.00;;;;8243373;28;20273;-68
2022/07/06 08:15:31;;;;;;;6.15;2.25;;;;;28.60;96874.00;;;;8240522;28;20199;-68
2022/07/06 08:19:34;;;;;;;4.75;2.38;;;;;29.50;96869.00;;;;8242279;28;20206;-67
2022/07/06 08:23:37;;;;;;;2.28;2.08;;;;;29.20;96878.00;;;;8239880;28;20205;-68
2022/07/06 08:27:41;;;;;;;4.28;2.03;;;;;29.60;96873.00;;;;8238243;28;20209;-71
2022/07/06 08:31:46;;;;;;;3.90;2.13;;;;;29.70;96869.00;;;;8242147;28;20938;-70
2022/07/06 08:35:59;;;;;;;5.53;1.80;;;;;29.30;96879.00;;;;8238518;28;20580;-72
2022/07/06 08:40:03;;;;;;;2.00;1.90;;;;;29.80;96871.00;;;;8236814;28;20242;-73
2022/07/06 08:44:07;;;;;;;2.13;1.92;;;;;30.70;96882.00;;;;8237429;28;20261;-73
2022/07/06 08:48:13;;;;;;;3.67;1.73;;;;;30.60;96873.00;;;;8239899;28;20377;-73
2022/07/06 08:52:17;;;;;;;1.92;1.83;;;;;31.30;96876.00;;;;8238244;28;20218;-73
2022/07/06 08:56:20;;;;;;;5.05;2.10;;;;;31.60;96878.00;;;;8238036;28;20260;-72
2022/07/06 09:00:24;;;;;;;2.85;2.10;;;;;31.80;96871.00;;;;8234012;28;20599;-70
2022/07/06 09:04:29;;;;;;;2.05;1.88;;;;;31.70;96875.00;;;;8239864;28;20269;-70
2022/07/06 09:08:33;;;;;;;1.67;1.58;;;;;30.00;96879.00;;;;8237504;28;20551;-70
2022/07/06 09:12:36;;;;;;;2.70;1.70;;;;;30.10;96875.00;;;;8238955;28;20692;-70
2022/07/06 09:16:40;;;;;;;2.15;1.88;;;;;30.40;96881.00;;;;8245433;28;20299;-70
2022/07/06 09:20:45;;;;;;;2.50;2.00;;;;;30.70;96880.00;;;;8245903;28;21622;-70
2022/07/06 09:24:50;;;;;;;4.28;1.70;;;;;30.40;96872.00;;;;8240616;28;20588;-69
2022/07/06 09:28:55;;;;;;;4.50;1.70;;;;;31.10;96867.00;;;;8240464;28;20206;-70
2022/07/06 09:32:59;;;;;;;2.13;1.50;;;;;31.60;96864.00;;;;8239899;28;20230;-70
2022/07/06 09:37:07;;;;;;;6.53;1.85;;;;;31.50;96872.00;;;;8240003;28;20207;-70
2022/07/06 09:41:10;;;;;;;3.08;1.90;;;;;31.60;96887.00;;;;8241313;28;20298;-70
2022/07/06 09:45:14;;;;;;;2.17;1.88;;;;;32.50;96869.00;;;;8240703;28;20206;-70
2022/07/06 09:49:21;;;;;;;4.13;1.80;;;;;33.30;96877.00;;;;8240910;28;20253;-71
2022/07/06 09:53:27;;;;;;;1.90;1.80;;;;;32.50;96881.00;;;;8243386;28;20285;-72
2022/07/06 09:57:31;;;;;;;3.00;1.67;;;;;32.10;96879.00;;;;8239687;28;20205;-73
2022/07/06 10:01:34;;;;;;;1.75;1.65;;;;;30.70;96886.00;;;;8247016;28;20298;-73
2022/07/06 10:05:39;;;;;;;1.45;1.35;;;;;31.20;96881.00;;;;8248174;28;20285;-74
2022/07/06 10:09:43;;;;;;;1.60;1.50;;;;;32.40;96871.00;;;;8252319;28;20286;-73
2022/07/06 10:13:49;;;;;;;4.13;1.30;;;;;33.40;96869.00;;;;8243802;28;20210;-73
2022/07/06 10:17:53;;;;;;;3.22;1.70;;;;;33.80;96883.00;;;;8253053;28;20199;-72
2022/07/06 10:21:59;;;;;;;2.35;1.83;;;;;33.90;96880.00;;;;8249145;28;20204;-73
2022/07/06 10:26:06;;;;;;;1.73;1.63;;;;;33.80;96894.00;;;;8244020;28;20199;-74
2022/07/06 10:30:16;;;;;;;1.65;1.55;;;;;34.00;96880.00;;;;8251329;28;20301;-75
2022/07/06 10:34:20;;;;;;;1.83;1.67;;;;;32.90;96892.00;;;;8247841;28;20282;-75
2022/07/06 10:38:32;;;;;;;1.63;1.52;;;;;31.30;96893.00;;;;8242747;28;20306;-74
2022/07/06 10:42:49;;;;;;;1.67;1.58;;;;;31.30;96883.00;;;;8252214;28;20623;-76
2022/07/06 10:46:54;;;;;;;1.88;1.60;;;;;30.20;96893.00;;;;8243066;28;20200;-73
2022/07/06 10:50:59;;;;;;;1.73;1.63;;;;;29.40;96891.00;;;;8245507;28;20321;-73
2022/07/06 10:55:02;;;;;;;1.77;1.67;;;;;29.90;96896.00;;;;8248887;28;20234;-74
2022/07/06 10:59:10;;;;;;;1.80;1.70;;;;;31.00;96885.00;;;;8243718;28;20632;-74
2022/07/06 11:03:39;;;;;;;2.97;1.90;;;;;30.50;96891.00;;;;8236465;28;20680;-74
2022/07/06 11:07:51;;;;;;;1.67;1.58;;;;;30.80;96896.00;;;;8243151;28;20226;-75
2022/07/06 11:11:57;;;;;;;2.60;1.80;;;;;30.50;96891.00;;;;8229903;28;20314;-74
2022/07/06 11:16:05;;;;;;;4.40;1.67;;;;;30.30;96892.00;;;;8243787;28;20241;-73
2022/07/06 11:20:12;;;;;;;1.75;1.63;;;;;29.10;96886.00;;;;8239116;28;20286;-74
2022/07/06 11:24:17;;;;;;;2.08;1.90;;;;;30.00;96884.00;;;;8234888;28;20270;-73
2022/07/06 11:28:20;;;;;;;1.60;1.50;;;;;30.30;96891.00;;;;8239691;28;20248;-74
2022/07/06 11:32:26;;;;;;;3.13;2.13;;;;;30.00;96881.00;;;;8231643;28;20306;-74
2022/07/06 11:36:30;;;;;;;2.50;1.90;;;;;29.30;96884.00;;;;8223929;28;20195;-74
2022/07/06 11:40:38;;;;;;;2.17;1.70;;;;;30.10;96887.00;;;;8240241;28;20303;-74
2022/07/06 11:44:43;;;;;;;2.65;1.70;;;;;30.30;96873.00;;;;8249823;28;20210;-74
2022/07/06 11:48:48;;;;;;;5.82;2.10;;;;;30.00;96869.00;;;;8238090;28;20210;-72
2022/07/06 11:52:51;;;;;;;3.83;1.80;;;;;31.00;96872.00;;;;8249266;28;20232;-73
2022/07/06 11:56:58;;;;;;;2.00;1.80;;;;;31.20;96871.00;;;;8245461;28;20228;-72
2022/07/06 12:01:05;;;;;;;2.05;1.65;;;;;30.80;96859.00;;;;8238370;28;20337;-72
2022/07/06 12:05:10;;;;;;;2.35;1.58;;;;;30.70;96873.00;;;;8246942;28;20352;-72
2022/07/06 12:09:14;;;;;;;1.40;1.40;;;;;31.50;96866.00;;;;8237208;28;20204;-73
2022/07/06 12:13:18;;;;;;;1.73;1.60;;;;;30.50;96864.00;;;;8239000;28;20714;-73
2022/07/06 12:17:21;;;;;;;4.25;1.90;;;;;29.90;96871.00;;;;8245278;28;20642;-73
2022/07/06 12:21:26;;;;;;;1.73;1.45;;;;;30.70;96862.00;;;;8230435;28;20239;-73
2022/07/06 12:25:32;;;;;;;3.10;1.70;;;;;31.70;96844.00;;;;8245077;28;20203;-71
2022/07/06 12:29:36;;;;;;;3.17;1.75;;;;;32.80;96856.00;;;;8233478;28;20195;-73
2022/07/06 12:33:39;;;;;;;1.65;1.55;;;;;33.50;96843.00;;;;8240311;28;20719;-73
2022/07/06 12:37:57;;;;;;;2.15;1.52;;;;;33.40;96852.00;;;;8236989;28;20195;-74
2022/07/06 12:42:04;;;;;;;3.60;1.45;;;;;33.20;96856.00;;;;8243000;28;20308;-73
2022/07/06 12:46:30;;;;;;;5.40;1.83;;;;;33.50;96851.00;;;;8250166;28;20286;-73
2022/07/06 12:50:36;;;;;;;1.65;1.50;;;;;32.40;96842.00;;;;8251458;28;20200;-70
2022/07/06 12:54:44;;;;;;;1.50;1.40;;;;;32.10;96830.00;;;;8254224;28;20253;-72
2022/07/06 12:59:00;;;;;;;4.20;1.60;;;;;31.40;96837.00;;;;8245756;28;20294;-70
2022/07/06 13:03:04;;;;;;;1.50;1.40;;;;;30.60;96840.00;;;;8249025;28;20244;-72
2022/07/06 13:07:20;;;;;;;2.15;1.67;;;;;29.90;96835.00;;;;8249199;28;20191;-74
2022/07/06 13:11:25;;;;;;;3.65;1.50;;;;;30.00;96840.00;;;;8245950;28;20226;-72
2022/07/06 13:15:28;;;;;;;2.90;1.33;;;;;30.00;96832.00;;;;8256909;28;20203;-73
2022/07/06 13:19:32;;;;;;;2.50;1.60;;;;;30.10;96831.00;;;;8243653;28;20621;-72
2022/07/06 13:23:35;;;;;;;4.10;1.60;;;;;30.00;96835.00;;;;8245048;28;20289;-72
2022/07/06 13:27:40;;;;;;;3.13;1.60;;;;;31.00;96827.00;;;;8249865;28;20588;-73
2022/07/06 13:31:43;;;;;;;2.80;1.50;;;;;31.60;96835.00;;;;8244024;28;20231;-75
2022/07/06 13:35:46;;;;;;;5.93;1.40;;;;;32.10;96824.00;;;;8240405;28;20227;-76
2022/07/06 13:39:50;;;;;;;1.38;1.27;;;;;32.80;96826.00;;;;8238573;28;20208;-75
2022/07/06 13:43:54;;;;;;;3.92;1.52;;;;;33.50;96829.00;;;;8241293;28;20207;-76
2022/07/06 13:47:58;;;;;;;3.20;1.42;;;;;33.50;96825.00;;;;8238625;28;20752;-75
2022/07/06 13:52:03;;;;;;;3.83;1.50;;;;;32.60;96824.00;;;;8243058;28;20334;-77
2022/07/06 13:56:07;;;;;;;1.95;1.60;;;;;31.90;96831.00;;;;8243147;28;20252;-75
2022/07/06 14:00:14;;;;;;;2.55;1.50;;;;;31.10;96842.00;;;;8238198;28;20607;-76
2022/07/06 14:04:17;;;;;;;2.75;1.70;;;;;30.30;96837.00;;;;8238111;28;20294;-75
2022/07/06 14:08:20;;;;;;;4.70;1.80;;;;;29.60;96822.00;;;;8236529;28;20226;-75
2022/07/06 14:12:24;;;;;;;2.95;1.50;;;;;29.90;96830.00;;;;8242161;28;20281;-76
2022/07/06 14:16:29;;;;;;;1.60;1.40;;;;;29.70;96835.00;;;;8247582;28;20249;-75
2022/07/06 14:20:32;;;;;;;4.88;1.55;;;;;29.70;96818.00;;;;8241219;28;20298;-75
2022/07/06 14:24:35;;;;;;;2.17;1.52;;;;;30.20;96821.00;;;;8240262;28;20202;-75
2022/07/06 14:28:38;;;;;;;4.53;1.50;;;;;31.10;96803.00;;;;8237227;28;20206;-75
2022/07/06 14:32:43;;;;;;;1.70;1.60;;;;;32.40;96811.00;;;;8256904;28;20227;-75
2022/07/06 14:36:46;;;;;;;3.33;1.63;;;;;32.80;96811.00;;;;8238408;28;20293;-73
2022/07/06 14:40:50;;;;;;;1.50;1.40;;;;;31.90;96809.00;;;;8244224;28;20306;-72
2022/07/06 14:44:53;;;;;;;3.17;1.60;;;;;31.30;96810.00;;;;8232853;28;20278;-74
2022/07/06 14:48:58;;;;;;;4.22;1.52;;;;;31.00;96807.00;;;;8238026;28;20206;-74
2022/07/06 14:53:01;;;;;;;2.13;1.50;;;;;31.30;96805.00;;;;8247370;28;20676;-73
2022/07/06 14:57:08;;;;;;;3.25;1.50;;;;;30.60;96799.00;;;;8243971;28;20235;-73
2022/07/06 15:01:12;;;;;;;1.70;1.60;;;;;30.10;96807.00;;;;8244313;28;20683;-73
2022/07/06 15:05:17;;;;;;;1.40;1.30;;;;;30.40;96800.00;;;;8251310;28;20231;-73
2022/07/06 15:09:20;;;;;;;1.40;1.40;;;;;31.10;96795.00;;;;8240252;28;20278;-72
2022/07/06 15:13:26;;;;;;;3.33;1.33;;;;;31.70;96794.00;;;;8243880;28;20234;-74
2022/07/06 15:17:31;;;;;;;4.15;1.73;;;;;31.10;96797.00;;;;8238710;28;20249;-74
2022/07/06 15:21:36;;;;;;;3.75;1.60;;;;;30.90;96799.00;;;;8240458;28;20200;-75
2022/07/06 15:25:39;;;;;;;5.43;1.30;;;;;31.20;96797.00;;;;8242170;28;20195;-75
2022/07/06 15:29:42;;;;;;;1.80;1.70;;;;;31.50;96790.00;;;;8243834;28;20191;-76
2022/07/06 15:33:45;;;;;;;2.58;1.50;;;;;31.80;96788.00;;;;8239132;28;20291;-75
2022/07/06 15:37:50;;;;;;;3.72;1.63;;;;;31.00;96785.00;;;;8246279;28;20270;-76
2022/07/06 15:41:57;;;;;;;1.88;1.50;;;;;30.50;96781.00;;;;8249939;28;20214;-76
2022/07/06 15:46:03;;;;;;;5.93;1.60;;;;;30.30;96783.00;;;;8245554;28;20286;-77
2022/07/06 15:50:08;;;;;;;3.65;1.38;;;;;30.00;96776.00;;;;8245565;28;21093;-76
2022/07/06 15:54:14;;;;;;;3.55;1.45;;;;;29.70;96775.00;;;;8247664;28;20235;-76
2022/07/06 15:58:17;;;;;;;1.92;1.70;;;;;29.30;96770.00;;;;8246784;28;20230;-75
2022/07/06 16:02:21;;;;;;;2.50;1.60;;;;;29.90;96772.00;;;;8249325;28;20552;-75
2022/07/06 16:06:25;;;;;;;1.52;1.30;;;;;30.00;96760.00;;;;8248258;28;20203;-75
2022/07/06 16:10:29;;;;;;;1.45;1.38;;;;;29.60;96761.00;;;;8244868;28;20207;-77
2022/07/06 16:14:33;;;;;;;1.98;1.40;;;;;28.90;96768.00;;;;8241675;28;20241;-76
2022/07/06 16:18:36;;;;;;;4.72;1.58;;;;;28.70;96767.00;;;;8248727;28;20899;-77
2022/07/06 16:22:39;;;;;;;4.45;1.60;;;;;28.70;96757.00;;;;8253535;28;20269;-77
2022/07/06 16:26:44;;;;;;;3.17;1.40;;;;;29.00;96748.00;;;;8249499;28;20869;-77
2022/07/06 16:30:47;;;;;;;3.35;1.50;;;;;29.70;96749.00;;;;8249192;28;20214;-77
2022/07/06 16:34:51;;;;;;;2.20;1.60;;;;;29.70;96747.00;;;;8252788;28;20377;-77
2022/07/06 16:38:54;;;;;;;4.75;1.67;;;;;29.90;96751.00;;;;8250112;28;20217;-76
2022/07/06 16:42:59;;;;;;;2.03;1.40;;;;;29.80;96743.00;;;;8244926;28;20699;-76
2022/07/06 16:47:02;;;;;;;3.03;1.27;;;;;29.80;96744.00;;;;8248062;28;20194;-80
2022/07/06 16:51:05;;;;;;;4.05;1.50;;;;;29.90;96752.00;;;;8247362;28;20205;-77
2022/07/06 16:55:09;;;;;;;3.78;1.50;;;;;30.30;96751.00;;;;8239431;28;20231;-79
2022/07/06 16:59:13;;;;;;;3.00;1.70;;;;;30.70;96749.00;;;;8240838;28;20198;-80
2022/07/06 17:03:17;;;;;;;3.17;1.90;;;;;31.10;96746.00;;;;8239914;28;20624;-80
2022/07/06 17:07:20;;;;;;;2.88;1.45;;;;;31.30;96748.00;;;;8239516;28;20207;-78
2022/07/06 17:11:24;;;;;;;1.70;1.60;;;;;30.90;96744.00;;;;8245745;28;20191;-79
2022/07/06 17:15:29;;;;;;;2.20;1.50;;;;;31.30;96745.00;;;;8251547;28;20237;-78
2022/07/06 17:19:32;;;;;;;3.00;1.40;;;;;31.90;96733.00;;;;8245397;28;20195;-78
2022/07/06 17:23:36;;;;;;;2.80;1.55;;;;;31.70;96732.00;;;;8242615;28;20283;-80
2022/07/06 17:27:39;;;;;;;3.72;1.40;;;;;31.70;96740.00;;;;8245441;28;20689;-80
2022/07/06 17:31:44;;;;;;;1.40;1.40;;;;;31.50;96743.00;;;;8243774;28;20286;-79
2022/07/06 17:35:47;;;;;;;6.53;1.60;;;;;31.40;96741.00;;;;8240456;28;20266;-79
2022/07/06 17:39:50;;;;;;;1.63;1.50;;;;;31.40;96750.00;;;;8245706;28;20294;-79
2022/07/06 17:43:54;;;;;;;2.33;1.63;;;;;31.30;96751.00;;;;8244643;28;20195;-79
2022/07/06 17:47:58;;;;;;;1.95;1.70;;;;;31.10;96747.00;;;;8244156;28;20233;-77
2022/07/06 17:52:03;;;;;;;2.45;1.42;;;;;30.80;96761.00;;;;8246427;28;20286;-77
2022/07/06 17:56:06;;;;;;;3.38;1.50;;;;;30.40;96755.00;;;;8241982;28;20310;-77
2022/07/06 18:00:11;;;;;;;2.65;1.38;;;;;29.60;96750.00;;;;8240006;28;20207;-75
2022/07/06 18:04:15;;;;;;;4.07;1.75;;;;;28.70;96761.00;;;;8237678;28;20756;-77
2022/07/06 18:08:19;;;;;;;1.73;1.60;;;;;27.80;96754.00;;;;8240534;28;20287;-77
2022/07/06 18:12:22;;;;;;;2.85;1.60;;;;;27.10;96763.00;;;;8244856;28;20214;-74
2022/07/06 18:16:26;;;;;;;3.70;1.65;;;;;26.50;96752.00;;;;8251123;28;20230;-76
2022/07/06 18:20:31;;;;;;;1.60;1.50;;;;;26.10;96757.00;;;;8247736;28;20203;-77
2022/07/06 18:24:34;;;;;;;1.95;1.40;;;;;25.80;96751.00;;;;8247383;28;20199;-76
2022/07/06 18:28:37;;;;;;;1.45;1.35;;;;;25.50;96748.00;;;;8243779;28;20195;-70
2022/07/06 18:32:40;;;;;;;4.43;1.60;;;;;25.10;96758.00;;;;8242881;28;20217;-71
2022/07/06 18:36:45;;;;;;;2.38;1.60;;;;;24.90;96757.00;;;;8244774;28;20223;-70
2022/07/06 18:40:48;;;;;;;2.15;1.80;;;;;24.50;96760.00;;;;8250164;28;20490;-71
2022/07/06 18:44:52;;;;;;;1.63;1.50;;;;;24.30;96760.00;;;;8244781;28;20191;-70
2022/07/06 18:48:55;;;;;;;4.63;1.90;;;;;24.00;96765.00;;;;8245351;28;20234;-70
2022/07/06 18:53:00;;;;;;;1.92;1.83;;;;;23.80;96765.00;;;;8251051;28;20202;-70
2022/07/06 18:57:04;;;;;;;7.13;1.80;;;;;23.50;96765.00;;;;8243635;28;20201;-70
2022/07/06 19:01:07;;;;;;;4.72;1.50;;;;;23.20;96774.00;;;;8244224;28;20198;-70
2022/07/06 19:05:10;;;;;;;1.90;1.80;;;;;23.00;96783.00;;;;8240377;28;20979;-71
2022/07/06 19:09:15;;;;;;;3.95;1.90;;;;;22.60;96781.00;;;;8242805;28;20202;-67
2022/07/06 19:13:18;;;;;;;3.35;1.90;;;;;22.30;96781.00;;;;8246254;28;20611;-66
2022/07/06 19:17:22;;;;;;;4.25;1.80;;;;;22.00;96785.00;;;;8240751;28;20203;-65
2022/07/06 19:21:25;;;;;;;5.43;1.70;;;;;21.70;96786.00;;;;8245030;28;20784;-65
2022/07/06 19:25:29;;;;;;;7.03;1.70;;;;;21.40;96787.00;;;;8237156;28;20278;-65
2022/07/06 19:29:33;;;;;;;2.92;1.83;;;;;21.20;96797.00;;;;8234706;28;20242;-67
2022/07/06 19:33:36;;;;;;;2.78;1.55;;;;;21.00;96800.00;;;;8240310;28;20620;-66
2022/07/06 19:37:40;;;;;;;1.55;1.52;;;;;20.90;96803.00;;;;8243636;28;20202;-66
2022/07/06 19:41:45;;;;;;;3.25;1.80;;;;;20.80;96801.00;;;;8239115;28;20230;-66
2022/07/06 19:45:50;;;;;;;3.40;1.85;;;;;20.80;96807.00;;;;8236403;28;20199;-66
2022/07/06 19:49:53;;;;;;;4.50;1.70;;;;;20.70;96806.00;;;;8229415;28;20207;-66
2022/07/06 19:53:57;;;;;;;2.08;1.80;;;;;20.70;96807.00;;;;8235132;28;20317;-67
2022/07/06 19:58:01;;;;;;;1.63;1.50;;;;;20.70;96813.00;;;;8235517;28;20877;-66
2022/07/06 20:02:05;;;;;;;1.75;1.60;;;;;20.60;96822.00;;;;8235415;28;20567;-65
2022/07/06 20:06:10;;;;;;;5.22;1.70;;;;;20.50;96826.00;;;;8239513;28;20613;-67
2022/07/06 20:10:13;;;;;;;3.40;1.63;;;;;20.50;96816.00;;;;8248582;28;20663;-67
2022/07/06 20:14:18;;;;;;;1.70;1.60;;;;;20.50;96819.00;;;;8244657;28;20321;-66
2022/07/06 20:18:21;;;;;;;1.92;1.52;;;;;20.40;96822.00;;;;8242866;28;20199;-66
2022/07/06 20:22:24;;;;;;;3.60;1.70;;;;;20.40;96823.00;;;;8232380;28;20245;-66
2022/07/06 20:26:27;;;;;;;1.80;1.60;;;;;20.30;96822.00;;;;8243180;28;20650;-66
2022/07/06 20:30:32;;;;;;;1.85;1.75;;;;;20.20;96821.00;;;;8239635;28;20195;-66
2022/07/06 20:34:36;;;;;;;3.33;1.70;;;;;20.20;96828.00;;;;8239953;28;20348;-66
2022/07/06 20:38:39;;;;;;;2.88;1.60;;;;;20.10;96821.00;;;;8242588;28;20571;-66
2022/07/06 20:42:42;;;;;;;3.45;1.80;;;;;20.00;96825.00;;;;8237205;28;20632;-67